Station Historical Data
Daily Summary for August 20, 2017 Units:  English    Metric   Both
Next Day »
Daily Weekly Monthly Yearly Custom
  High: Low: Average:
Temperature: 86.6 °F 69.9 °F 76.4 °F
Dew Point: 59.9 °F 50.6 °F 55.9 °F
Humidity: 60% 36% 50%
Wind Speed: 9.0mph 0.0mph 1.2mph
Wind Gust: 13.0mph - -
Wind- - South
Pressure: 29.84 in 29.78 in -
Precipitation: 0.00 in    
Historical Graphs
 
 
Tabular Data for August 20, 2017
Time Temperature Dew Point Pressure Wind Wind Speed Wind Gust Humidity Rainfall Rate (Hourly) solar Conditions
00:04 72.4 °F 57.8 °F 29.79 in ESE 4.0 mph 7.0 mph 60% 0.00 in 0.00 W/m2
00:09 72.4 °F 57.8 °F 29.79 in Calm   7.0 mph 60% 0.00 in 0.00 W/m2
00:14 72.5 °F 57.8 °F 29.79 in Calm   5.0 mph 60% 0.00 in 0.00 W/m2
00:19 72.5 °F 57.8 °F 29.79 in Calm     60% 0.00 in 0.00 W/m2
00:24 72.5 °F 57.8 °F 29.79 in ESE 1.0 mph 6.0 mph 60% 0.00 in 0.00 W/m2
00:29 72.5 °F 57.8 °F 29.79 in Calm   8.0 mph 60% 0.00 in 0.00 W/m2
00:34 72.5 °F 57.4 °F 29.79 in Calm   7.0 mph 59% 0.00 in 0.00 W/m2
00:39 72.6 °F 57.5 °F 29.79 in ESE 1.0 mph 7.0 mph 59% 0.00 in 0.00 W/m2
00:44 72.6 °F 57.5 °F 29.78 in Calm   7.0 mph 59% 0.00 in 0.00 W/m2
00:49 72.5 °F 57.4 °F 29.78 in Calm   8.0 mph 59% 0.00 in 0.00 W/m2
00:54 72.5 °F 57.4 °F 29.78 in ESE 4.0 mph 7.0 mph 59% 0.00 in 0.00 W/m2
01:00 72.6 °F 57.0 °F 29.78 in Calm   5.0 mph 58% 0.00 in 0.00 W/m2
01:05 72.6 °F 57.0 °F 29.78 in Calm   7.0 mph 58% 0.00 in 0.00 W/m2
01:10 72.6 °F 57.0 °F 29.78 in Calm   6.0 mph 58% 0.00 in 0.00 W/m2
01:15 72.6 °F 57.0 °F 29.78 in ESE 1.0 mph 7.0 mph 58% 0.00 in 0.00 W/m2
01:20 72.6 °F 56.5 °F 29.78 in ESE 6.0 mph 12.0 mph 57% 0.00 in 0.00 W/m2
01:25 72.6 °F 56.5 °F 29.78 in ESE 4.0 mph 7.0 mph 57% 0.00 in 0.00 W/m2
01:30 72.6 °F 56.5 °F 29.78 in Calm   8.0 mph 57% 0.00 in 0.00 W/m2
01:35 72.6 °F 56.5 °F 29.78 in ESE 4.0 mph 11.0 mph 57% 0.00 in 0.00 W/m2
01:40 72.5 °F 56.4 °F 29.78 in Calm   11.0 mph 57% 0.00 in 0.00 W/m2
01:45 72.5 °F 56.4 °F 29.79 in Calm   8.0 mph 57% 0.00 in 0.00 W/m2
01:50 72.6 °F 56.5 °F 29.79 in ESE 5.0 mph 8.0 mph 57% 0.00 in 0.00 W/m2
01:51 72.5 °F 55.9 °F 29.78 in Calm   2.0 mph 56% 0.00 in 0.00 W/m2
01:56 72.5 °F 55.9 °F 29.78 in Calm   4.0 mph 56% 0.00 in 0.00 W/m2
02:01 72.4 °F 55.8 °F 29.79 in East 7.0 mph 7.0 mph 56% 0.00 in 0.00 W/m2
02:06 72.4 °F 55.8 °F 29.79 in Calm   1.0 mph 56% 0.00 in 0.00 W/m2
02:11 72.2 °F 56.1 °F 29.79 in Calm     57% 0.00 in 0.00 W/m2
02:16 71.9 °F 56.3 °F 29.79 in Calm     58% 0.00 in 0.00 W/m2
02:21 71.7 °F 56.2 °F 29.79 in Calm     58% 0.00 in 0.00 W/m2
02:26 71.5 °F 56.0 °F 29.79 in East 1.0 mph 7.0 mph 58% 0.00 in 0.00 W/m2
02:31 71.4 °F 55.9 °F 29.79 in Calm   7.0 mph 58% 0.00 in 0.00 W/m2
02:36 71.3 °F 55.8 °F 29.79 in East 4.0 mph 11.0 mph 58% 0.00 in 0.00 W/m2
02:41 71.2 °F 55.7 °F 29.79 in Calm   2.0 mph 58% 0.00 in 0.00 W/m2
02:46 71.1 °F 55.1 °F 29.79 in Calm   13.0 mph 57% 0.00 in 0.00 W/m2
02:51 71.1 °F 55.1 °F 29.79 in ESE 4.0 mph 6.0 mph 57% 0.00 in 0.00 W/m2
02:56 71.1 °F 54.1 °F 29.79 in Calm   9.0 mph 55% 0.00 in 0.00 W/m2
03:01 71.1 °F 54.1 °F 29.79 in ESE 4.0 mph 6.0 mph 55% 0.00 in 0.00 W/m2
03:07 71.1 °F 54.1 °F 29.79 in Calm   9.0 mph 55% 0.00 in 0.00 W/m2
03:12 71.2 °F 53.7 °F 29.79 in Calm   6.0 mph 54% 0.00 in 0.00 W/m2
03:17 71.2 °F 54.2 °F 29.79 in Calm   8.0 mph 55% 0.00 in 0.00 W/m2
03:22 71.2 °F 55.2 °F 29.79 in Calm   8.0 mph 57% 0.00 in 0.00 W/m2
03:27 71.0 °F 55.0 °F 29.79 in Calm   6.0 mph 57% 0.00 in 0.00 W/m2
03:32 70.7 °F 55.2 °F 29.79 in Calm     58% 0.00 in 0.00 W/m2
03:37 70.4 °F 55.4 °F 29.79 in Calm   6.0 mph 59% 0.00 in 0.00 W/m2
03:42 70.2 °F 55.2 °F 29.79 in Calm   2.0 mph 59% 0.00 in 0.00 W/m2
03:47 70.1 °F 55.1 °F 29.79 in East 1.0 mph 1.0 mph 59% 0.00 in 0.00 W/m2
03:52 70.0 °F 53.6 °F 29.79 in Calm     56% 0.00 in 0.00 W/m2
03:57 69.9 °F 53.0 °F 29.79 in Calm   11.0 mph 55% 0.00 in 0.00 W/m2
04:02 69.9 °F 53.0 °F 29.79 in East 2.0 mph 9.0 mph 55% 0.00 in 0.00 W/m2
04:07 70.0 °F 53.1 °F 29.78 in Calm   8.0 mph 55% 0.00 in 0.00 W/m2
04:12 70.1 °F 52.7 °F 29.78 in Calm   8.0 mph 54% 0.00 in 0.00 W/m2
04:17 70.2 °F 52.3 °F 29.79 in Calm   8.0 mph 53% 0.00 in 0.00 W/m2
04:22 70.3 °F 52.4 °F 29.79 in East 7.0 mph 11.0 mph 53% 0.00 in 0.00 W/m2
04:27 70.3 °F 52.4 °F 29.79 in East 2.0 mph 9.0 mph 53% 0.00 in 0.00 W/m2
04:32 70.4 °F 52.0 °F 29.79 in ESE 6.0 mph 8.0 mph 52% 0.00 in 0.00 W/m2
04:37 70.4 °F 52.0 °F 29.79 in Calm   9.0 mph 52% 0.00 in 0.00 W/m2
04:42 70.6 °F 51.6 °F 29.79 in Calm   11.0 mph 51% 0.00 in 0.00 W/m2
04:47 70.6 °F 51.6 °F 29.79 in East 8.0 mph 12.0 mph 51% 0.00 in 0.00 W/m2
04:52 70.7 °F 51.2 °F 29.79 in ESE 7.0 mph 9.0 mph 50% 0.00 in 0.00 W/m2
04:57 70.8 °F 51.3 °F 29.80 in Calm   8.0 mph 50% 0.00 in 0.00 W/m2
05:02 70.8 °F 51.3 °F 29.80 in ESE 4.0 mph 11.0 mph 50% 0.00 in 0.00 W/m2
05:07 70.8 °F 50.7 °F 29.80 in ESE 1.0 mph 9.0 mph 49% 0.00 in 0.00 W/m2
05:12 70.8 °F 50.7 °F 29.79 in Calm   7.0 mph 49% 0.00 in 0.00 W/m2
05:17 70.9 °F 50.8 °F 29.79 in East 5.0 mph 7.0 mph 49% 0.00 in 0.00 W/m2
05:22 70.9 °F 50.8 °F 29.79 in ESE 2.0 mph 8.0 mph 49% 0.00 in 0.00 W/m2
05:27 70.9 °F 50.8 °F 29.79 in East 1.0 mph 6.0 mph 49% 0.00 in 0.00 W/m2
05:32 70.8 °F 50.7 °F 29.80 in ESE 8.0 mph 8.0 mph 49% 0.00 in 0.00 W/m2
05:37 70.8 °F 50.7 °F 29.80 in ESE 5.0 mph 7.0 mph 49% 0.00 in 0.00 W/m2
05:42 70.8 °F 50.7 °F 29.80 in Calm   9.0 mph 49% 0.00 in 0.00 W/m2
05:47 70.8 °F 50.7 °F 29.80 in ESE 4.0 mph 8.0 mph 49% 0.00 in 0.00 W/m2
05:52 70.7 °F 50.6 °F 29.80 in Calm   6.0 mph 49% 0.00 in 0.00 W/m2
05:57 70.7 °F 51.2 °F 29.80 in ESE 6.0 mph 8.0 mph 50% 0.00 in 0.00 W/m2
06:02 70.7 °F 51.2 °F 29.80 in Calm   5.0 mph 50% 0.00 in 0.00 W/m2
06:07 70.6 °F 51.1 °F 29.80 in ESE 1.0 mph 7.0 mph 50% 0.00 in 0.00 W/m2
06:12 70.5 °F 51.0 °F 29.80 in Calm   7.0 mph 50% 0.00 in 0.00 W/m2
06:17 70.5 °F 51.0 °F 29.80 in Calm   6.0 mph 50% 0.00 in 0.00 W/m2
06:22 70.4 °F 51.4 °F 29.80 in ESE 2.0 mph 7.0 mph 51% 0.00 in 5.00 W/m2
06:28 70.4 °F 51.4 °F 29.81 in Calm   1.0 mph 51% 0.00 in 7.00 W/m2
06:33 70.3 °F 51.3 °F 29.80 in Calm   1.0 mph 51% 0.00 in 11.00 W/m2
06:38 70.3 °F 51.3 °F 29.81 in ESE 7.0 mph 7.0 mph 51% 0.00 in 14.00 W/m2
06:43 70.2 °F 51.2 °F 29.81 in ESE 1.0 mph 7.0 mph 51% 0.00 in 18.00 W/m2
06:48 70.2 °F 51.2 °F 29.81 in ESE 9.0 mph 9.0 mph 51% 0.00 in 23.00 W/m2
06:53 70.1 °F 51.2 °F 29.81 in ESE 1.0 mph 6.0 mph 51% 0.00 in 30.00 W/m2
06:58 70.1 °F 51.2 °F 29.81 in Calm   9.0 mph 51% 0.00 in 39.00 W/m2
07:03 70.1 °F 51.2 °F 29.81 in ESE 6.0 mph 7.0 mph 51% 0.00 in 33.00 W/m2
07:08 70.0 °F 51.1 °F 29.82 in Calm   6.0 mph 51% 0.00 in 44.00 W/m2
07:13 70.0 °F 51.6 °F 29.82 in Calm   2.0 mph 52% 0.00 in 76.00 W/m2
07:18 70.0 °F 51.6 °F 29.82 in Calm   2.0 mph 52% 0.00 in 90.00 W/m2
07:23 70.0 °F 52.1 °F 29.82 in Calm   4.0 mph 53% 0.00 in 105.00 W/m2
07:28 70.0 °F 52.1 °F 29.82 in Calm   6.0 mph 53% 0.00 in 120.00 W/m2
07:33 69.9 °F 52.0 °F 29.82 in Calm   6.0 mph 53% 0.00 in 137.00 W/m2
07:38 69.9 °F 52.5 °F 29.82 in Calm   5.0 mph 54% 0.00 in 158.00 W/m2
07:43 69.9 °F 52.5 °F 29.82 in ESE 6.0 mph 8.0 mph 54% 0.00 in 179.00 W/m2
07:48 69.9 °F 53.0 °F 29.82 in Calm   5.0 mph 55% 0.00 in 199.00 W/m2
07:53 70.0 °F 53.1 °F 29.82 in Calm   4.0 mph 55% 0.00 in 216.00 W/m2
07:58 70.0 °F 53.1 °F 29.82 in Calm   4.0 mph 55% 0.00 in 232.00 W/m2
08:03 70.0 °F 53.6 °F 29.82 in ESE 2.0 mph 4.0 mph 56% 0.00 in 250.00 W/m2
08:08 70.1 °F 53.7 °F 29.82 in Calm   6.0 mph 56% 0.00 in 267.00 W/m2
08:13 70.1 °F 53.7 °F 29.82 in Calm   6.0 mph 56% 0.00 in 281.00 W/m2
08:18 70.2 °F 54.3 °F 29.83 in Calm   5.0 mph 57% 0.00 in 299.00 W/m2
08:24 70.3 °F 54.4 °F 29.83 in Calm   6.0 mph 57% 0.00 in 315.00 W/m2
08:29 70.4 °F 54.5 °F 29.83 in Calm   5.0 mph 57% 0.00 in 330.00 W/m2
08:34 70.5 °F 54.5 °F 29.83 in Calm     57% 0.00 in 345.00 W/m2
08:39 70.6 °F 54.6 °F 29.83 in Calm   1.0 mph 57% 0.00 in 355.00 W/m2
08:44 70.7 °F 55.2 °F 29.83 in Calm   1.0 mph 58% 0.00 in 371.00 W/m2
08:49 70.9 °F 55.4 °F 29.83 in Calm     58% 0.00 in 385.00 W/m2
08:54 71.2 °F 56.2 °F 29.83 in Calm   4.0 mph 59% 0.00 in 399.00 W/m2
08:59 71.4 °F 56.3 °F 29.83 in ESE 1.0 mph 5.0 mph 59% 0.00 in 415.00 W/m2
09:04 71.7 °F 56.6 °F 29.83 in Calm     59% 0.00 in 431.00 W/m2
09:09 72.0 °F 56.9 °F 29.83 in Calm   1.0 mph 59% 0.00 in 445.00 W/m2
09:14 72.3 °F 57.2 °F 29.83 in Calm   5.0 mph 59% 0.00 in 459.00 W/m2
09:19 72.6 °F 57.5 °F 29.83 in Calm   2.0 mph 59% 0.00 in 469.00 W/m2
09:24 72.9 °F 57.3 °F 29.83 in Calm     58% 0.00 in 483.00 W/m2
09:29 73.1 °F 57.5 °F 29.83 in Calm     58% 0.00 in 499.00 W/m2
09:34 73.3 °F 55.7 °F 29.83 in Calm     54% 0.00 in 517.00 W/m2
09:39 73.6 °F 55.4 °F 29.83 in Calm     53% 0.00 in 533.00 W/m2
09:44 74.1 °F 56.4 °F 29.83 in Calm     54% 0.00 in 548.00 W/m2
09:49 74.5 °F 56.8 °F 29.83 in Calm     54% 0.00 in 561.00 W/m2
09:54 74.9 °F 56.6 °F 29.83 in Calm     53% 0.00 in 575.00 W/m2
09:59 75.2 °F 56.9 °F 29.83 in Calm   4.0 mph 53% 0.00 in 589.00 W/m2
10:04 75.4 °F 57.6 °F 29.82 in Calm   1.0 mph 54% 0.00 in 599.00 W/m2
10:09 75.7 °F 55.8 °F 29.82 in ESE 1.0 mph 4.0 mph 50% 0.00 in 613.00 W/m2
10:14 76.2 °F 55.7 °F 29.83 in Calm     49% 0.00 in 624.00 W/m2
10:19 76.5 °F 55.4 °F 29.83 in Calm   2.0 mph 48% 0.00 in 636.00 W/m2
10:24 76.9 °F 56.3 °F 29.83 in Calm   2.0 mph 49% 0.00 in 650.00 W/m2
10:29 77.2 °F 57.1 °F 29.83 in Calm   4.0 mph 50% 0.00 in 663.00 W/m2
10:34 77.5 °F 56.9 °F 29.82 in Calm   2.0 mph 49% 0.00 in 671.00 W/m2
10:39 77.9 °F 56.7 °F 29.83 in ESE 1.0 mph 7.0 mph 48% 0.00 in 682.00 W/m2
10:44 78.2 °F 56.9 °F 29.83 in Calm   1.0 mph 48% 0.00 in 694.00 W/m2
10:49 78.7 °F 59.1 °F 29.83 in Calm     51% 0.00 in 701.00 W/m2
10:54 79.1 °F 59.4 °F 29.82 in Calm     51% 0.00 in 714.00 W/m2
10:59 79.3 °F 57.3 °F 29.83 in Calm   8.0 mph 47% 0.00 in 728.00 W/m2
11:04 79.6 °F 57.0 °F 29.83 in Calm   7.0 mph 46% 0.00 in 733.00 W/m2
11:09 79.9 °F 56.7 °F 29.82 in Calm   8.0 mph 45% 0.00 in 744.00 W/m2
11:14 80.2 °F 58.2 °F 29.82 in SE 6.0 mph 7.0 mph 47% 0.00 in 749.00 W/m2
11:19 80.7 °F 57.4 °F 29.82 in SE 1.0 mph 7.0 mph 45% 0.00 in 756.00 W/m2
11:24 81.1 °F 57.8 °F 29.82 in SSE 2.0 mph 7.0 mph 45% 0.00 in 763.00 W/m2
11:29 81.4 °F 58.0 °F 29.82 in SSW 1.0 mph 8.0 mph 45% 0.00 in 772.00 W/m2
11:34 81.7 °F 57.0 °F 29.82 in Calm   6.0 mph 43% 0.00 in 779.00 W/m2
11:39 81.9 °F 58.5 °F 29.82 in Calm   4.0 mph 45% 0.00 in 789.00 W/m2
11:44 82.2 °F 58.1 °F 29.82 in SW 1.0 mph 7.0 mph 44% 0.00 in 795.00 W/m2
11:49 82.3 °F 57.6 °F 29.82 in Calm   7.0 mph 43% 0.00 in 800.00 W/m2
11:54 82.4 °F 57.7 °F 29.82 in WSW 5.0 mph 8.0 mph 43% 0.00 in 805.00 W/m2
11:59 82.6 °F 58.5 °F 29.82 in WSW 6.0 mph 8.0 mph 44% 0.00 in 809.00 W/m2
12:04 82.9 °F 58.1 °F 29.82 in WSW 6.0 mph 10.0 mph 43% 0.00 in 816.00 W/m2
12:09 83.2 °F 57.8 °F 29.82 in West 6.0 mph 9.0 mph 42% 0.00 in 819.00 W/m2
12:14 83.6 °F 58.8 °F 29.82 in Calm   11.0 mph 43% 0.00 in 823.00 W/m2
12:19 84.1 °F 59.2 °F 29.82 in Calm   7.0 mph 43% 0.00 in 828.00 W/m2
12:24 84.6 °F 59.7 °F 29.82 in Calm   7.0 mph 43% 0.00 in 831.00 W/m2
12:29 85.1 °F 58.8 °F 29.82 in SW 5.0 mph 9.0 mph 41% 0.00 in 831.00 W/m2
12:34 85.7 °F 59.3 °F 29.82 in SW 4.0 mph 9.0 mph 41% 0.00 in 837.00 W/m2
12:39 86.3 °F 59.8 °F 29.82 in SW 5.0 mph 8.0 mph 41% 0.00 in 837.00 W/m2
12:44 85.9 °F 58.8 °F 29.82 in WSW 8.0 mph 9.0 mph 40% 0.00 in 838.00 W/m2
12:49 85.0 °F 58.7 °F 29.82 in WSW 4.0 mph 10.0 mph 41% 0.00 in 840.00 W/m2
12:54 84.6 °F 58.3 °F 29.82 in WSW 3.0 mph 10.0 mph 41% 0.00 in 840.00 W/m2
12:59 84.3 °F 58.7 °F 29.82 in SW 5.0 mph 10.0 mph 42% 0.00 in 842.00 W/m2
13:04 84.5 °F 58.9 °F 29.82 in WSW 3.0 mph 8.0 mph 42% 0.00 in 842.00 W/m2
13:09 84.6 °F 59.0 °F 29.82 in WSW 2.0 mph 12.0 mph 42% 0.00 in 842.00 W/m2
13:14 84.6 °F 59.7 °F 29.82 in Calm   9.0 mph 43% 0.00 in 842.00 W/m2
13:19 84.6 °F 59.7 °F 29.82 in Calm   6.0 mph 43% 0.00 in 837.00 W/m2
13:24 84.7 °F 59.1 °F 29.81 in Calm   11.0 mph 42% 0.00 in 840.00 W/m2
13:29 84.9 °F 58.6 °F 29.81 in Calm   9.0 mph 41% 0.00 in 837.00 W/m2
13:34 84.9 °F 58.6 °F 29.81 in Calm   8.0 mph 41% 0.00 in 835.00 W/m2
13:39 85.3 °F 59.0 °F 29.82 in SW 1.0 mph 12.0 mph 41% 0.00 in 831.00 W/m2
13:45 85.5 °F 58.5 °F 29.82 in Calm   10.0 mph 40% 0.00 in 828.00 W/m2
13:50 85.7 °F 58.6 °F 29.81 in SW 1.0 mph 7.0 mph 40% 0.00 in 826.00 W/m2
13:55 85.9 °F 58.8 °F 29.81 in SSW 2.0 mph 9.0 mph 40% 0.00 in 823.00 W/m2
14:00 86.1 °F 57.5 °F 29.81 in WSW 1.0 mph 8.0 mph 38% 0.00 in 816.00 W/m2
14:05 86.3 °F 58.5 °F 29.81 in SW 6.0 mph 7.0 mph 39% 0.00 in 812.00 W/m2
14:10 86.5 °F 57.2 °F 29.81 in SW 6.0 mph 13.0 mph 37% 0.00 in 805.00 W/m2
14:15 86.6 °F 58.0 °F 29.81 in SW 3.0 mph 9.0 mph 38% 0.00 in 802.00 W/m2
14:16 86.6 °F 58.0 °F 29.81 in SW 2.0 mph 3.0 mph 38% 0.00 in 800.00 W/m2
14:21 86.6 °F 58.0 °F 29.82 in WSW 1.0 mph 5.0 mph 38% 0.00 in 793.00 W/m2
14:26 86.6 °F 56.5 °F 29.82 in Calm     36% 0.00 in 789.00 W/m2
14:31 86.6 °F 57.2 °F 29.82 in Calm   1.0 mph 37% 0.00 in 782.00 W/m2
14:36 86.0 °F 57.5 °F 29.82 in WSW 5.0 mph 6.0 mph 38% 0.00 in 779.00 W/m2
14:41 85.5 °F 57.7 °F 29.81 in WSW 4.0 mph 4.0 mph 39% 0.00 in 772.00 W/m2
14:46 84.9 °F 56.5 °F 29.81 in West 2.0 mph 3.0 mph 38% 0.00 in 766.00 W/m2
14:51 84.5 °F 56.8 °F 29.81 in West 2.0 mph 4.0 mph 39% 0.00 in 758.00 W/m2
14:56 83.9 °F 57.0 °F 29.81 in Calm     40% 0.00 in 751.00 W/m2
15:01 83.8 °F 56.9 °F 29.81 in West 2.0 mph 3.0 mph 40% 0.00 in 742.00 W/m2
15:06 83.5 °F 56.7 °F 29.81 in Calm     40% 0.00 in 733.00 W/m2
15:11 83.2 °F 57.1 °F 29.81 in WSW 3.0 mph 6.0 mph 41% 0.00 in 724.00 W/m2
15:16 83.3 °F 56.5 °F 29.81 in WSW 2.0 mph 4.0 mph 40% 0.00 in 719.00 W/m2
15:21 83.6 °F 56.0 °F 29.81 in Calm   4.0 mph 39% 0.00 in 708.00 W/m2
15:26 83.8 °F 56.9 °F 29.81 in Calm     40% 0.00 in 700.00 W/m2
15:31 84.0 °F 56.4 °F 29.81 in SW 3.0 mph 4.0 mph 39% 0.00 in 691.00 W/m2
15:36 84.3 °F 56.7 °F 29.81 in Calm     39% 0.00 in 684.00 W/m2
15:41 84.5 °F 57.5 °F 29.80 in Calm   4.0 mph 40% 0.00 in 675.00 W/m2
15:46 84.6 °F 56.2 °F 29.81 in Calm   5.0 mph 38% 0.00 in 670.00 W/m2
15:51 84.6 °F 56.9 °F 29.81 in Calm     39% 0.00 in 661.00 W/m2
15:56 84.6 °F 56.9 °F 29.81 in Calm   4.0 mph 39% 0.00 in 659.00 W/m2
16:01 84.7 °F 56.3 °F 29.80 in Calm   6.0 mph 38% 0.00 in 650.00 W/m2
16:06 84.8 °F 56.4 °F 29.80 in Calm     38% 0.00 in 643.00 W/m2
16:07 84.9 °F 56.5 °F 29.80 in Calm   2.0 mph 38% 0.00 in 643.00 W/m2
16:12 84.8 °F 57.1 °F 29.80 in SSW 3.0 mph 6.0 mph 39% 0.00 in 638.00 W/m2
16:17 84.7 °F 56.3 °F 29.80 in SW 2.0 mph 2.0 mph 38% 0.00 in 628.00 W/m2
16:22 84.3 °F 56.7 °F 29.80 in Calm     39% 0.00 in 621.00 W/m2
16:27 84.1 °F 55.8 °F 29.80 in Calm     38% 0.00 in 612.00 W/m2
16:32 84.2 °F 56.6 °F 29.80 in WSW 4.0 mph 9.0 mph 39% 0.00 in 603.00 W/m2
16:37 84.2 °F 56.6 °F 29.80 in Calm   4.0 mph 39% 0.00 in 589.00 W/m2
16:42 84.3 °F 56.0 °F 29.80 in Calm   3.0 mph 38% 0.00 in 538.00 W/m2
16:47 84.3 °F 56.7 °F 29.80 in SW 1.0 mph 5.0 mph 39% 0.00 in 534.00 W/m2
16:52 84.3 °F 56.0 °F 29.81 in SW 6.0 mph 6.0 mph 38% 0.00 in 550.00 W/m2
16:57 84.4 °F 56.0 °F 29.81 in Calm   7.0 mph 38% 0.00 in 540.00 W/m2
17:02 84.5 °F 56.1 °F 29.81 in SW 5.0 mph 10.0 mph 38% 0.00 in 517.00 W/m2
17:07 84.5 °F 56.1 °F 29.81 in SW 1.0 mph 1.0 mph 38% 0.00 in 513.00 W/m2
17:12 84.5 °F 56.8 °F 29.81 in SW 7.0 mph 7.0 mph 39% 0.00 in 499.00 W/m2
17:17 84.5 °F 56.1 °F 29.81 in SW 4.0 mph 4.0 mph 38% 0.00 in 483.00 W/m2
17:22 84.5 °F 56.8 °F 29.81 in Calm   2.0 mph 39% 0.00 in 471.00 W/m2
17:27 84.4 °F 56.8 °F 29.81 in Calm   5.0 mph 39% 0.00 in 450.00 W/m2
17:32 84.3 °F 56.7 °F 29.81 in WSW 4.0 mph 4.0 mph 39% 0.00 in 439.00 W/m2
17:37 84.2 °F 55.9 °F 29.81 in Calm   3.0 mph 38% 0.00 in 385.00 W/m2
17:42 84.2 °F 56.6 °F 29.81 in Calm   1.0 mph 39% 0.00 in 350.00 W/m2
17:47 84.1 °F 56.5 °F 29.80 in Calm   5.0 mph 39% 0.00 in 265.00 W/m2
17:52 83.7 °F 56.8 °F 29.81 in WSW 4.0 mph 4.0 mph 40% 0.00 in 156.00 W/m2
17:57 83.4 °F 56.6 °F 29.81 in Calm   1.0 mph 40% 0.00 in 120.00 W/m2
18:02 83.2 °F 57.8 °F 29.81 in Calm     42% 0.00 in 109.00 W/m2
18:07 82.9 °F 57.5 °F 29.81 in Calm     42% 0.00 in 113.00 W/m2
18:12 82.6 °F 57.9 °F 29.81 in Calm   2.0 mph 43% 0.00 in 125.00 W/m2
18:17 82.1 °F 58.0 °F 29.81 in Calm     44% 0.00 in 132.00 W/m2
18:23 81.6 °F 57.0 °F 29.81 in Calm     43% 0.00 in 123.00 W/m2
18:28 81.2 °F 57.2 °F 29.80 in Calm     44% 0.00 in 128.00 W/m2
18:33 80.9 °F 57.6 °F 29.80 in Calm     45% 0.00 in 120.00 W/m2
18:38 80.6 °F 57.9 °F 29.80 in Calm     46% 0.00 in 146.00 W/m2
18:43 80.4 °F 58.3 °F 29.80 in Calm     47% 0.00 in 146.00 W/m2
18:48 80.1 °F 58.7 °F 29.80 in Calm     48% 0.00 in 125.00 W/m2
18:53 79.6 °F 59.9 °F 29.80 in West 1.0 mph 7.0 mph 51% 0.00 in 142.00 W/m2
18:58 79.3 °F 59.1 °F 29.80 in Calm   1.0 mph 50% 0.00 in 100.00 W/m2
19:03 79.1 °F 58.9 °F 29.80 in Calm     50% 0.00 in 95.00 W/m2
19:08 79.0 °F 58.8 °F 29.80 in Calm     50% 0.00 in 76.00 W/m2
19:13 78.9 °F 58.7 °F 29.80 in Calm     50% 0.00 in 63.00 W/m2
19:18 78.9 °F 59.8 °F 29.80 in Calm     52% 0.00 in 56.00 W/m2
19:23 78.7 °F 59.1 °F 29.81 in Calm     51% 0.00 in 47.00 W/m2
19:28 78.4 °F 59.3 °F 29.81 in Calm     52% 0.00 in 37.00 W/m2
19:33 77.9 °F 59.4 °F 29.80 in Calm     53% 0.00 in 32.00 W/m2
19:38 77.5 °F 58.5 °F 29.80 in Calm     52% 0.00 in 25.00 W/m2
19:43 77.2 °F 58.2 °F 29.81 in Calm     52% 0.00 in 18.00 W/m2
19:48 77.0 °F 58.0 °F 29.81 in Calm     52% 0.00 in 11.00 W/m2
19:53 76.7 °F 57.8 °F 29.80 in Calm   1.0 mph 52% 0.00 in 7.00 W/m2
19:58 76.3 °F 56.3 °F 29.80 in Calm   5.0 mph 50% 0.00 in 5.00 W/m2
20:01 76.1 °F 56.1 °F 29.80 in West 2.0 mph 4.0 mph 50% 0.00 in 0.00 W/m2
20:06 75.8 °F 55.9 °F 29.80 in Calm     50% 0.00 in 0.00 W/m2
20:08 75.8 °F 55.9 °F 29.80 in Calm   1.0 mph 50% 0.00 in 0.00 W/m2
20:13 75.6 °F 56.2 °F 29.80 in Calm   1.0 mph 51% 0.00 in 0.00 W/m2
20:18 75.5 °F 56.1 °F 29.80 in West 3.0 mph 4.0 mph 51% 0.00 in 0.00 W/m2
20:23 75.3 °F 55.9 °F 29.80 in West 3.0 mph 5.0 mph 51% 0.00 in 0.00 W/m2
20:28 75.2 °F 55.8 °F 29.81 in Calm   1.0 mph 51% 0.00 in 0.00 W/m2
20:33 75.1 °F 55.8 °F 29.81 in Calm   1.0 mph 51% 0.00 in 0.00 W/m2
20:38 75.1 °F 55.8 °F 29.82 in Calm     51% 0.00 in 0.00 W/m2
20:43 75.0 °F 55.7 °F 29.82 in Calm   1.0 mph 51% 0.00 in 0.00 W/m2
20:48 74.9 °F 56.1 °F 29.83 in West 3.0 mph 3.0 mph 52% 0.00 in 0.00 W/m2
20:53 74.9 °F 56.1 °F 29.83 in Calm     52% 0.00 in 0.00 W/m2
20:58 74.7 °F 55.9 °F 29.83 in Calm     52% 0.00 in 0.00 W/m2
21:03 74.5 °F 55.7 °F 29.83 in Calm     52% 0.00 in 0.00 W/m2
21:08 74.3 °F 55.6 °F 29.83 in Calm   1.0 mph 52% 0.00 in 0.00 W/m2
21:13 74.2 °F 55.5 °F 29.83 in West 5.0 mph 6.0 mph 52% 0.00 in 0.00 W/m2
21:18 74.2 °F 55.5 °F 29.83 in Calm   5.0 mph 52% 0.00 in 0.00 W/m2
21:23 74.0 °F 55.8 °F 29.83 in Calm   7.0 mph 53% 0.00 in 0.00 W/m2
21:28 74.0 °F 55.8 °F 29.84 in Calm   2.0 mph 53% 0.00 in 0.00 W/m2
21:33 73.9 °F 55.7 °F 29.84 in Calm   6.0 mph 53% 0.00 in 0.00 W/m2
21:38 73.8 °F 56.1 °F 29.84 in Calm   3.0 mph 54% 0.00 in 0.00 W/m2
21:43 73.8 °F 56.1 °F 29.83 in Calm     54% 0.00 in 0.00 W/m2
21:49 73.7 °F 56.5 °F 29.84 in Calm     55% 0.00 in 0.00 W/m2
21:54 73.6 °F 56.5 °F 29.84 in Calm     55% 0.00 in 0.00 W/m2
21:59 73.5 °F 56.4 °F 29.84 in Calm     55% 0.00 in 0.00 W/m2
22:04 73.2 °F 56.6 °F 29.84 in Calm     56% 0.00 in 0.00 W/m2
22:09 72.8 °F 56.2 °F 29.84 in Calm     56% 0.00 in 0.00 W/m2
22:14 72.5 °F 56.4 °F 29.84 in Calm     57% 0.00 in 0.00 W/m2
22:19 72.5 °F 56.4 °F 29.84 in Calm     57% 0.00 in 0.00 W/m2
22:24 72.3 °F 56.2 °F 29.84 in Calm     57% 0.00 in 0.00 W/m2
22:29 72.1 °F 56.0 °F 29.84 in Calm     57% 0.00 in 0.00 W/m2
22:34 71.9 °F 56.3 °F 29.84 in Calm     58% 0.00 in 0.00 W/m2
22:39 71.7 °F 56.2 °F 29.84 in Calm     58% 0.00 in 0.00 W/m2
22:44 71.7 °F 56.2 °F 29.84 in Calm     58% 0.00 in 0.00 W/m2
22:49 71.6 °F 56.1 °F 29.84 in Calm   1.0 mph 58% 0.00 in 0.00 W/m2
22:54 71.6 °F 56.1 °F 29.84 in Calm     58% 0.00 in 0.00 W/m2
22:59 71.6 °F 55.6 °F 29.84 in Calm     57% 0.00 in 0.00 W/m2
23:04 71.6 °F 55.6 °F 29.84 in Calm     57% 0.00 in 0.00 W/m2
23:09 71.6 °F 55.6 °F 29.84 in Calm     57% 0.00 in 0.00 W/m2
23:14 71.6 °F 55.6 °F 29.84 in SW 3.0 mph 6.0 mph 57% 0.00 in 0.00 W/m2
23:19 71.6 °F 55.6 °F 29.84 in Calm   5.0 mph 57% 0.00 in 0.00 W/m2
23:24 71.6 °F 55.6 °F 29.84 in SSW 3.0 mph 6.0 mph 57% 0.00 in 0.00 W/m2
23:29 71.6 °F 55.6 °F 29.84 in South 7.0 mph 8.0 mph 57% 0.00 in 0.00 W/m2
23:34 71.6 °F 55.6 °F 29.84 in SE 2.0 mph 8.0 mph 57% 0.00 in 0.00 W/m2
23:39 71.6 °F 55.6 °F 29.84 in ESE 4.0 mph 11.0 mph 57% 0.00 in 0.00 W/m2
23:44 71.6 °F 55.6 °F 29.84 in Calm   8.0 mph 57% 0.00 in 0.00 W/m2
23:49 71.6 °F 56.1 °F 29.84 in Calm   7.0 mph 58% 0.00 in 0.00 W/m2
23:54 71.6 °F 56.1 °F 29.84 in Calm   6.0 mph 58% 0.00 in 0.00 W/m2
23:59 71.6 °F 56.1 °F 29.84 in Calm     58% 0.00 in 0.00 W/m2
Foresthill Weather
 WU-history PHP script courtesy of   Juneau County Weather.
powered by Cumulus v1.9.3 (1059)
Ambient Weather VWS v14.00
Top Contact Website Map Copyright © 2007 - 2018 Foresthillweather.com Never base important decisions on this or any weather information obtained from the Internet